Time;durP1;ratioP1;P1;durP2;ratioP2;P2;SDS_P1;SDS_P2;PMS_P1;PMS_P2;Temp;Humidity;BMP_temperature;BMP_pressure;BME280_temperature;BME280_humidity;BME280_pressure;Samples;Min_cycle;Max_cycle;Signal;HPM_P1;HPM_P2
2024/04/05 00:02:24;;;;;;;;;;;;;;;10.27;100.00;95774.38;10423818;28;2598;-72
2024/04/05 00:07:26;;;;;;;;;;;;;;;10.31;100.00;95777.34;10417682;28;2740;-71
2024/04/05 00:12:27;;;;;;;;;;;;;;;10.32;100.00;95787.00;10414529;28;2754;-71
2024/04/05 00:22:45;;;;;;;;;;;;;;;10.40;100.00;95782.97;10419632;28;2839;-71
2024/04/05 00:27:47;;;;;;;;;;;;;;;10.47;100.00;95786.16;10411888;28;2796;-73
2024/04/05 00:32:49;;;;;;;;;;;;;;;10.54;100.00;95770.56;10414553;28;2912;-71
2024/04/05 00:37:52;;;;;;;;;;;;;;;10.48;100.00;95771.66;10416996;28;2824;-73
2024/04/05 00:42:53;;;;;;;;;;;;;;;10.50;100.00;95778.38;10417808;28;2812;-72
2024/04/05 00:47:55;;;;;;;;;;;;;;;10.49;100.00;95770.56;10401150;28;2558;-71
2024/04/05 00:52:57;;;;;;;;;;;;;;;10.54;100.00;95773.25;10417495;28;2753;-71
2024/04/05 00:58:00;;;;;;;;;;;;;;;10.54;100.00;95766.00;10417134;28;2804;-72
2024/04/05 01:03:02;;;;;;;;;;;;;;;10.57;100.00;95761.97;10414567;28;2931;-73
2024/04/05 01:08:06;;;;;;;;;;;;;;;10.62;100.00;95758.44;10414401;28;2630;-72
2024/04/05 01:13:07;;;;;;;;;;;;;;;10.62;100.00;95756.56;10413276;28;2797;-71
2024/04/05 01:18:09;;;;;;;;;;;;;;;10.59;100.00;95754.44;10383904;28;2821;-71
2024/04/05 01:23:11;;;;;;;;;;;;;;;10.63;100.00;95750.13;10374042;28;2935;-71
2024/04/05 01:28:13;;;;;;;;;;;;;;;10.61;100.00;95749.56;10375235;28;2837;-71
2024/04/05 01:33:14;;;;;;;;;;;;;;;10.61;100.00;95746.88;10370351;28;2816;-71
2024/04/05 01:38:16;;;;;;;;;;;;;;;10.67;100.00;95753.84;10375177;28;2610;-71
2024/04/05 01:43:18;;;;;;;;;;;;;;;10.66;100.00;95752.25;10359559;28;2766;-72
2024/04/05 01:48:20;;;;;;;;;;;;;;;10.68;100.00;95770.78;10374643;28;2588;-72
2024/04/05 01:53:22;;;;;;;;;;;;;;;10.66;100.00;95767.56;10378412;28;2817;-71
2024/04/05 01:58:24;;;;;;;;;;;;;;;10.52;100.00;95775.41;10368492;28;2814;-71
2024/04/05 02:03:26;;;;;;;;;;;;;;;10.45;100.00;95766.84;10381843;28;2837;-70
2024/04/05 02:08:27;;;;;;;;;;;;;;;10.34;100.00;95754.50;10374430;28;2748;-71
2024/04/05 02:13:31;;;;;;;;;;;;;;;10.27;100.00;95755.59;10377093;28;2763;-72
2024/04/05 02:18:33;;;;;;;;;;;;;;;10.26;100.00;95756.66;10429688;28;2844;-70
2024/04/05 02:23:36;;;;;;;;;;;;;;;10.22;100.00;95752.88;10412669;28;2828;-71
2024/04/05 02:28:37;;;;;;;;;;;;;;;10.22;100.00;95758.25;10408659;28;2776;-72
2024/04/05 02:33:39;;;;;;;;;;;;;;;10.24;100.00;95761.50;10406771;28;2752;-73
2024/04/05 02:38:41;;;;;;;;;;;;;;;10.24;100.00;95761.50;10425529;28;3008;-71
2024/04/05 02:43:44;;;;;;;;;;;;;;;10.24;100.00;95764.19;10410576;28;2887;-70
2024/04/05 02:48:46;;;;;;;;;;;;;;;10.25;100.00;95757.75;10411337;28;2764;-72
2024/04/05 02:53:47;;;;;;;;;;;;;;;10.23;100.00;95762.56;10409168;28;2628;-71
2024/04/05 02:58:49;;;;;;;;;;;;;;;10.19;100.00;95763.38;10408949;28;2853;-71
2024/04/05 03:03:51;;;;;;;;;;;;;;;10.14;100.00;95756.09;10410361;28;2881;-71
2024/04/05 03:08:53;;;;;;;;;;;;;;;10.09;100.00;95753.44;10416034;28;2717;-73
2024/04/05 03:13:54;;;;;;;;;;;;;;;10.06;100.00;95751.28;10407031;28;2955;-71
2024/04/05 03:18:56;;;;;;;;;;;;;;;10.03;100.00;95759.88;10380474;28;2790;-70
2024/04/05 03:23:58;;;;;;;;;;;;;;;10.03;100.00;95760.69;10362756;28;2912;-71
2024/04/05 03:28:59;;;;;;;;;;;;;;;10.08;100.00;95762.56;10374972;28;2803;-71
2024/04/05 03:34:01;;;;;;;;;;;;;;;10.12;100.00;95757.47;10374262;28;2793;-71
2024/04/05 03:39:03;;;;;;;;;;;;;;;10.10;100.00;95749.66;10382038;28;2851;-71
2024/04/05 03:44:05;;;;;;;;;;;;;;;10.08;100.00;95745.66;10380295;28;2799;-71
2024/04/05 03:49:07;;;;;;;;;;;;;;;10.09;100.00;95740.00;10382305;28;2903;-71
2024/04/05 03:54:09;;;;;;;;;;;;;;;10.08;100.00;95741.06;10374486;28;2735;-72
2024/04/05 03:59:10;;;;;;;;;;;;;;;10.06;100.00;95740.56;10377429;28;2826;-71
2024/04/05 04:04:12;;;;;;;;;;;;;;;10.02;100.00;95736.78;10378516;28;2886;-71
2024/04/05 04:09:14;;;;;;;;;;;;;;;9.99;100.00;95738.16;10382351;28;2776;-71
2024/04/05 04:14:16;;;;;;;;;;;;;;;10.05;100.00;95752.34;10383937;28;2884;-72
2024/04/05 04:19:18;;;;;;;;;;;;;;;10.09;100.00;95753.44;10385403;28;2878;-72
2024/04/05 04:24:20;;;;;;;;;;;;;;;10.12;100.00;95758.28;10381107;28;2854;-73
2024/04/05 04:29:22;;;;;;;;;;;;;;;10.15;100.00;95755.03;10382017;28;2580;-71
2024/04/05 04:34:24;;;;;;;;;;;;;;;10.20;100.00;95757.72;10389110;28;2867;-70
2024/04/05 04:39:26;;;;;;;;;;;;;;;10.24;100.00;95756.13;10388792;28;2951;-72
2024/04/05 04:44:29;;;;;;;;;;;;;;;10.30;100.00;95756.91;10375033;28;2685;-72
2024/04/05 04:49:32;;;;;;;;;;;;;;;10.29;100.00;95756.09;10388667;28;2954;-72
2024/04/05 04:54:34;;;;;;;;;;;;;;;10.39;100.00;95759.88;10375760;28;2532;-72
2024/04/05 04:59:36;;;;;;;;;;;;;;;10.45;100.00;95761.47;10385101;28;2712;-71
2024/04/05 05:04:37;;;;;;;;;;;;;;;10.51;100.00;95757.69;10384987;28;2604;-71
2024/04/05 05:09:39;;;;;;;;;;;;;;;10.50;100.00;95762.25;10373555;28;2814;-72
2024/04/05 05:14:42;;;;;;;;;;;;;;;10.61;100.00;95763.00;10369771;28;2932;-73
2024/04/05 05:19:43;;;;;;;;;;;;;;;10.71;100.00;95749.53;10379350;28;2744;-72
2024/04/05 05:24:47;;;;;;;;;;;;;;;10.88;100.00;95737.63;10418049;28;2816;-71
2024/04/05 05:29:48;;;;;;;;;;;;;;;11.03;100.00;95737.56;10415556;28;2811;-71
2024/04/05 05:34:50;;;;;;;;;;;;;;;11.14;100.00;95731.06;10418845;28;2853;-72
2024/04/05 05:39:51;;;;;;;;;;;;;;;11.29;100.00;95733.66;10414155;28;2963;-70
2024/04/05 05:44:53;;;;;;;;;;;;;;;11.34;100.00;95736.31;10417760;28;2601;-76
2024/04/05 05:49:55;;;;;;;;;;;;;;;11.29;100.00;95741.72;10417029;28;2748;-72
2024/04/05 05:54:56;;;;;;;;;;;;;;;11.39;100.00;95738.19;10413584;28;2879;-70
2024/04/05 05:59:58;;;;;;;;;;;;;;;11.51;100.00;95740.50;10406929;28;2868;-71
2024/04/05 06:04:59;;;;;;;;;;;;;;;11.78;100.00;95740.84;10394458;28;2868;-72
2024/04/05 06:10:01;;;;;;;;;;;;;;;12.15;100.00;95728.69;10408779;28;2898;-70
2024/04/05 06:15:04;;;;;;;;;;;;;;;12.06;100.00;95738.50;10386562;28;3054;-68
2024/04/05 06:20:06;;;;;;;;;;;;;;;12.31;100.00;95738.25;10368600;28;2719;-70
2024/04/05 06:25:08;;;;;;;;;;;;;;;12.38;100.00;95733.31;10367905;28;2854;-73
2024/04/05 06:30:10;;;;;;;;;;;;;;;12.43;100.00;95745.94;10368280;28;2838;-70
2024/04/05 06:35:11;;;;;;;;;;;;;;;12.65;100.00;95742.72;10365777;28;2778;-69
2024/04/05 06:40:13;;;;;;;;;;;;;;;12.81;100.00;95740.66;10362419;28;2922;-67
2024/04/05 06:45:14;;;;;;;;;;;;;;;13.10;100.00;95729.75;10368086;28;2995;-70
2024/04/05 06:50:16;;;;;;;;;;;;;;;13.35;100.00;95720.53;10372581;28;2680;-72
2024/04/05 06:55:19;;;;;;;;;;;;;;;13.56;100.00;95726.47;10366112;28;2823;-71
2024/04/05 07:00:20;;;;;;;;;;;;;;;13.73;100.00;95719.41;10364894;28;2812;-71
2024/04/05 07:05:22;;;;;;;;;;;;;;;14.35;100.00;95711.06;10363251;28;2885;-72
2024/04/05 07:10:25;;;;;;;;;;;;;;;14.83;100.00;95725.06;10349583;28;2617;-71
2024/04/05 07:15:27;;;;;;;;;;;;;;;14.86;100.00;95718.22;10390337;28;2836;-70
2024/04/05 07:20:28;;;;;;;;;;;;;;;14.78;100.00;95732.47;10402383;28;2609;-71
2024/04/05 07:25:30;;;;;;;;;;;;;;;14.36;100.00;95741.63;10404711;28;2831;-70
2024/04/05 07:30:33;;;;;;;;;;;;;;;14.20;100.00;95741.09;10417881;28;2599;-70
2024/04/05 07:35:34;;;;;;;;;;;;;;;14.45;100.00;95732.53;10405558;28;2773;-73
2024/04/05 07:40:43;;;;;;;;;;;;;;;15.02;100.00;95735.78;10403305;28;2871;-70
2024/04/05 07:45:45;;;;;;;;;;;;;;;15.44;100.00;95739.19;10401925;28;2932;-70
2024/04/05 07:50:47;;;;;;;;;;;;;;;15.79;100.00;95737.63;10421915;28;2795;-70
2024/04/05 07:55:48;;;;;;;;;;;;;;;15.99;100.00;95733.59;10431942;28;2651;-69
2024/04/05 08:00:50;;;;;;;;;;;;;;;16.51;100.00;95716.81;10417157;28;2813;-68
2024/04/05 08:05:52;;;;;;;;;;;;;;;16.77;100.00;95719.69;10412891;28;2743;-69
2024/04/05 08:10:54;;;;;;;;;;;;;;;16.68;100.00;95723.13;10446907;28;2959;-69
2024/04/05 08:15:56;;;;;;;;;;;;;;;16.92;100.00;95716.53;10419309;28;2816;-71
2024/04/05 08:20:58;;;;;;;;;;;;;;;17.48;100.00;95720.31;10408067;28;2792;-70
2024/04/05 08:25:59;;;;;;;;;;;;;;;17.85;100.00;95715.38;10422079;28;2813;-71
2024/04/05 08:31:02;;;;;;;;;;;;;;;18.08;100.00;95719.53;10418532;28;2602;-70
2024/04/05 08:36:04;;;;;;;;;;;;;;;18.75;100.00;95718.06;10404650;28;2741;-69
2024/04/05 08:41:05;;;;;;;;;;;;;;;18.90;100.00;95712.91;10396865;28;2867;-71
2024/04/05 08:46:07;;;;;;;;;;;;;;;19.02;100.00;95712.19;10420464;28;2710;-70
2024/04/05 08:51:09;;;;;;;;;;;;;;;19.27;100.00;95706.91;10413001;28;2845;-69
2024/04/05 08:56:11;;;;;;;;;;;;;;;19.09;100.00;95703.50;10415659;28;2794;-69
2024/04/05 09:01:13;;;;;;;;;;;;;;;19.26;100.00;95706.09;10415362;28;2826;-71
2024/04/05 09:06:17;;;;;;;;;;;;;;;19.72;100.00;95704.34;10419389;28;2808;-70
2024/04/05 09:11:21;;;;;;;;;;;;;;;19.60;100.00;95702.38;10415874;28;2595;-69
2024/04/05 09:16:23;;;;;;;;;;;;;;;19.57;100.00;95708.47;10378180;28;2812;-71
2024/04/05 09:21:25;;;;;;;;;;;;;;;19.90;100.00;95714.00;10373412;28;2793;-70
2024/04/05 09:26:27;;;;;;;;;;;;;;;19.55;100.00;95715.38;10375608;28;2811;-69
2024/04/05 09:31:29;;;;;;;;;;;;;;;19.98;100.00;95721.31;10369418;28;2762;-70
2024/04/05 09:36:31;;;;;;;;;;;;;;;20.43;100.00;95701.44;10359427;28;2757;-70
2024/04/05 09:41:33;;;;;;;;;;;;;;;20.34;100.00;95692.53;10376423;28;2741;-69
2024/04/05 09:46:35;;;;;;;;;;;;;;;20.40;100.00;95696.63;10371762;28;2731;-70
2024/04/05 09:51:44;;;;;;;;;;;;;;;20.39;100.00;95688.78;10372578;28;2777;-69
2024/04/05 09:56:46;;;;;;;;;;;;;;;20.75;95.77;95693.56;10366977;28;2518;-71
2024/04/05 10:01:47;;;;;;;;;;;;;;;20.77;90.14;95683.88;10365883;28;2817;-70
2024/04/05 10:06:49;;;;;;;;;;;;;;;20.97;86.52;95687.63;10364287;28;2711;-69
2024/04/05 10:11:51;;;;;;;;;;;;;;;20.85;83.43;95693.09;10362001;28;2839;-71
2024/04/05 10:16:53;;;;;;;;;;;;;;;20.10;88.51;95695.97;10365332;28;2776;-70
2024/04/05 10:21:55;;;;;;;;;;;;;;;20.63;84.16;95690.81;10364545;28;2759;-68
2024/04/05 10:26:58;;;;;;;;;;;;;;;20.90;70.35;95692.88;10362690;28;2733;-72
2024/04/05 10:31:59;;;;;;;;;;;;;;;20.75;78.68;95685.34;10363944;28;2765;-72
2024/04/05 10:37:01;;;;;;;;;;;;;;;20.93;78.42;95685.91;10367209;28;2886;-68
2024/04/05 10:42:02;;;;;;;;;;;;;;;21.23;69.26;95683.72;10365066;28;2820;-69
2024/04/05 10:47:04;;;;;;;;;;;;;;;21.42;62.50;95681.22;10367658;28;2781;-68
2024/04/05 10:52:05;;;;;;;;;;;;;;;21.53;57.73;95678.81;10366103;28;2849;-68
2024/04/05 10:57:08;;;;;;;;;;;;;;;21.40;60.63;95682.72;10363456;28;2633;-69
2024/04/05 11:02:12;;;;;;;;;;;;;;;21.33;63.22;95677.84;10365719;28;2510;-69
2024/04/05 11:07:17;;;;;;;;;;;;;;;21.53;56.82;95660.47;10372058;28;3016;-69
2024/04/05 11:12:18;;;;;;;;;;;;;;;21.54;56.95;95664.00;10369284;28;2845;-71
2024/04/05 11:17:21;;;;;;;;;;;;;;;21.70;56.96;95648.44;10371240;28;2728;-70
2024/04/05 11:22:29;;;;;;;;;;;;;;;21.57;54.99;95653.16;10352001;28;2854;-69
2024/04/05 11:27:31;;;;;;;;;;;;;;;21.58;52.10;95649.28;10365607;28;2794;-70
2024/04/05 11:32:32;;;;;;;;;;;;;;;21.58;52.70;95643.81;10355300;28;2972;-76
2024/04/05 11:37:35;;;;;;;;;;;;;;;21.59;48.36;95631.72;10374712;28;2778;-70
2024/04/05 11:42:36;;;;;;;;;;;;;;;21.71;49.63;95614.47;10368877;28;2804;-70
2024/04/05 11:47:38;;;;;;;;;;;;;;;21.53;53.43;95619.44;10391909;28;2680;-73
2024/04/05 11:52:40;;;;;;;;;;;;;;;21.69;49.31;95613.22;10357251;28;2703;-70
2024/04/05 11:57:42;;;;;;;;;;;;;;;21.91;42.23;95615.41;10373336;28;2805;-69
2024/04/05 12:02:44;;;;;;;;;;;;;;;21.99;44.34;95594.50;10371298;28;3067;-70
2024/04/05 12:07:45;;;;;;;;;;;;;;;21.88;39.41;95583.25;10372028;28;2698;-71
2024/04/05 12:12:47;;;;;;;;;;;;;;;22.16;40.13;95582.44;10371761;28;2826;-69
2024/04/05 12:17:49;;;;;;;;;;;;;;;22.62;39.32;95569.88;10413841;28;2821;-70
2024/04/05 12:22:51;;;;;;;;;;;;;;;23.16;41.76;95544.50;10418383;28;2762;-70
2024/04/05 12:27:55;;;;;;;;;;;;;;;23.25;39.02;95545.06;10414463;28;2696;-69
2024/04/05 12:32:56;;;;;;;;;;;;;;;23.04;39.92;95545.44;10415869;28;2820;-69
2024/04/05 12:37:58;;;;;;;;;;;;;;;22.54;42.22;95546.22;10401086;28;2887;-69
2024/04/05 12:43:00;;;;;;;;;;;;;;;22.35;42.93;95541.47;10411781;28;2814;-71
2024/04/05 12:48:02;;;;;;;;;;;;;;;22.13;45.07;95512.75;10416323;28;2999;-69
2024/04/05 12:53:04;;;;;;;;;;;;;;;22.79;42.94;95525.66;10412193;28;2912;-70
2024/04/05 12:58:05;;;;;;;;;;;;;;;23.43;39.36;95524.28;10416845;28;2555;-73
2024/04/05 13:03:07;;;;;;;;;;;;;;;23.34;39.43;95514.69;10411085;28;2773;-70
2024/04/05 13:08:09;;;;;;;;;;;;;;;23.19;39.42;95511.66;10394337;28;3009;-68
2024/04/05 13:13:11;;;;;;;;;;;;;;;23.10;40.25;95516.56;10408547;28;2846;-70
2024/04/05 13:18:13;;;;;;;;;;;;;;;23.23;38.54;95503.53;10411950;28;2451;-71
2024/04/05 13:23:14;;;;;;;;;;;;;;;23.14;40.12;95500.19;10408055;28;2764;-69
2024/04/05 13:28:16;;;;;;;;;;;;;;;23.43;37.07;95498.81;10401014;28;2674;-72
2024/04/05 13:33:18;;;;;;;;;;;;;;;23.39;38.10;95498.72;10407108;28;2756;-68
2024/04/05 13:38:19;;;;;;;;;;;;;;;23.41;38.96;95492.88;10405415;28;2978;-69
2024/04/05 13:43:21;;;;;;;;;;;;;;;23.26;37.17;95486.34;10411056;28;3105;-70
2024/04/05 13:48:22;;;;;;;;;;;;;;;23.40;38.82;95483.06;10391568;28;2816;-69
2024/04/05 13:53:24;;;;;;;;;;;;;;;23.39;38.04;95474.03;10408573;28;2793;-71
2024/04/05 13:58:35;;;;;;;;;;;;;;;23.57;40.94;95474.38;10402715;28;6457;-70
2024/04/05 14:03:38;;;;;;;;;;;;;;;23.55;37.59;95465.72;10394587;28;2889;-69
2024/04/05 14:08:40;;;;;;;;;;;;;;;23.42;37.61;95464.31;10389265;28;2878;-70
2024/04/05 14:13:42;;;;;;;;;;;;;;;23.83;36.54;95459.19;10416777;28;2783;-70
2024/04/05 14:18:47;;;;;;;;;;;;;;;23.96;33.38;95466.06;10406908;28;2800;-70
2024/04/05 14:23:49;;;;;;;;;;;;;;;23.73;33.45;95460.59;10407254;28;2846;-69
2024/04/05 14:28:51;;;;;;;;;;;;;;;23.69;34.02;95477.00;10410466;28;2819;-68
2024/04/05 14:33:53;;;;;;;;;;;;;;;23.76;33.29;95470.03;10407664;28;2848;-69
2024/04/05 14:38:56;;;;;;;;;;;;;;;23.51;32.76;95473.09;10419744;28;2834;-72
2024/04/05 14:43:58;;;;;;;;;;;;;;;23.29;33.18;95468.38;10406834;28;2794;-69
2024/04/05 14:49:00;;;;;;;;;;;;;;;23.17;33.39;95467.38;10405854;28;2799;-69
2024/04/05 14:54:02;;;;;;;;;;;;;;;23.06;33.32;95454.59;10403736;28;2854;-70
2024/04/05 14:59:04;;;;;;;;;;;;;;;23.23;33.08;95469.81;10403108;28;2835;-70
2024/04/05 15:04:05;;;;;;;;;;;;;;;22.84;34.77;95475.25;10403694;28;2804;-69
2024/04/05 15:09:10;;;;;;;;;;;;;;;22.88;34.74;95468.72;10405008;28;2817;-70
2024/04/05 15:14:12;;;;;;;;;;;;;;;23.13;34.90;95463.75;10407833;28;2835;-71
2024/04/05 15:19:13;;;;;;;;;;;;;;;22.69;35.43;95467.88;10413359;28;2793;-71
2024/04/05 15:24:15;;;;;;;;;;;;;;;22.43;36.18;95472.03;10396184;28;2867;-73
2024/04/05 15:29:17;;;;;;;;;;;;;;;22.30;36.49;95473.28;10402343;28;2931;-75
2024/04/05 15:34:19;;;;;;;;;;;;;;;22.10;36.98;95484.16;10406605;28;2744;-70
2024/04/05 15:39:21;;;;;;;;;;;;;;;21.98;38.51;95491.66;10416989;28;2610;-71
2024/04/05 15:44:22;;;;;;;;;;;;;;;21.82;38.86;95513.50;10388453;28;2653;-70
2024/04/05 15:49:24;;;;;;;;;;;;;;;21.75;40.08;95519.59;10399814;28;2831;-68
2024/04/05 15:54:25;;;;;;;;;;;;;;;21.53;40.49;95515.50;10408481;28;3113;-71
2024/04/05 15:59:28;;;;;;;;;;;;;;;21.46;42.01;95515.31;10407339;28;2829;-69
2024/04/05 16:04:29;;;;;;;;;;;;;;;21.43;42.36;95528.88;10408024;28;2934;-69
2024/04/05 16:09:31;;;;;;;;;;;;;;;21.21;44.29;95527.47;10393524;28;2819;-68
2024/04/05 16:14:34;;;;;;;;;;;;;;;21.12;45.01;95540.47;10408028;28;2869;-69
2024/04/05 16:19:36;;;;;;;;;;;;;;;21.00;45.83;95544.84;10432883;28;2776;-71
2024/04/05 16:24:38;;;;;;;;;;;;;;;20.83;46.56;95536.91;10394731;28;2858;-70
2024/04/05 16:29:40;;;;;;;;;;;;;;;20.80;47.65;95521.22;10420230;28;2738;-69
2024/04/05 16:34:42;;;;;;;;;;;;;;;20.66;49.51;95545.38;10444596;28;2942;-73
2024/04/05 16:39:44;;;;;;;;;;;;;;;20.46;52.69;95544.38;10413630;28;2819;-71
2024/04/05 16:44:46;;;;;;;;;;;;;;;20.45;52.30;95546.31;10413086;28;2805;-72
2024/04/05 16:49:48;;;;;;;;;;;;;;;20.26;53.87;95546.03;10414767;28;2820;-71
2024/04/05 16:54:50;;;;;;;;;;;;;;;19.97;57.25;95538.84;10410558;28;2654;-72
2024/04/05 16:59:51;;;;;;;;;;;;;;;19.81;58.37;95533.25;10409357;28;2818;-73
2024/04/05 17:04:53;;;;;;;;;;;;;;;19.63;61.86;95540.03;10415049;28;2913;-70
2024/04/05 17:09:55;;;;;;;;;;;;;;;19.51;63.73;95542.69;10399173;28;2665;-70
2024/04/05 17:14:57;;;;;;;;;;;;;;;19.44;65.95;95541.31;10410045;28;2804;-73
2024/04/05 17:19:58;;;;;;;;;;;;;;;19.34;68.46;95541.75;10406346;28;2864;-71
2024/04/05 17:25:00;;;;;;;;;;;;;;;19.22;72.71;95549.88;10413610;28;2941;-69
2024/04/05 17:30:02;;;;;;;;;;;;;;;19.13;74.16;95568.19;10410595;28;2803;-71
2024/04/05 17:35:04;;;;;;;;;;;;;;;19.06;76.81;95576.09;10415404;28;2801;-71
2024/04/05 17:40:06;;;;;;;;;;;;;;;19.10;75.48;95587.94;10412625;28;2714;-70
2024/04/05 17:45:12;;;;;;;;;;;;;;;19.09;76.73;95578.97;10408329;28;2621;-72
2024/04/05 17:50:13;;;;;;;;;;;;;;;18.93;80.37;95575.25;10410026;28;2738;-73
2024/04/05 17:55:15;;;;;;;;;;;;;;;18.82;82.85;95572.09;10413749;28;2832;-71
2024/04/05 18:00:17;;;;;;;;;;;;;;;18.64;86.75;95585.03;10408341;28;2891;-71
2024/04/05 18:05:18;;;;;;;;;;;;;;;18.61;88.70;95598.47;10412055;28;2780;-69
2024/04/05 18:10:20;;;;;;;;;;;;;;;18.46;90.84;95604.50;10414755;28;2748;-71
2024/04/05 18:15:22;;;;;;;;;;;;;;;18.42;92.67;95614.44;10409886;28;2847;-69
2024/04/05 18:20:23;;;;;;;;;;;;;;;18.35;95.21;95625.81;10406544;28;2829;-71
2024/04/05 18:25:25;;;;;;;;;;;;;;;18.41;94.28;95629.97;10405374;28;2835;-71
2024/04/05 18:30:27;;;;;;;;;;;;;;;18.46;94.61;95651.56;10407504;28;2728;-70
2024/04/05 18:35:29;;;;;;;;;;;;;;;18.35;96.83;95642.94;10426248;28;2431;-71
2024/04/05 18:40:30;;;;;;;;;;;;;;;18.36;97.08;95641.81;10420349;28;2202;-68
2024/04/05 18:45:32;;;;;;;;;;;;;;;18.10;100.00;95641.91;10425517;28;1948;-70
2024/04/05 18:50:34;;;;;;;;;;;;;;;17.95;100.00;95633.47;10434544;28;1910;-69
2024/04/05 18:55:39;;;;;;;;;;;;;;;17.90;100.00;95644.53;10435497;28;1391;-70
2024/04/05 19:00:41;;;;;;;;;;;;;;;17.77;100.00;95657.97;10422105;28;1558;-69
2024/04/05 19:05:42;;;;;;;;;;;;;;;17.71;100.00;95661.97;10423480;28;1462;-71
2024/04/05 19:10:44;;;;;;;;;;;;;;;17.71;100.00;95653.00;10418605;28;1902;-70
2024/04/05 19:15:45;;;;;;;;;;;;;;;17.65;100.00;95651.56;10399401;28;1448;-72
2024/04/05 19:20:47;;;;;;;;;;;;;;;17.68;100.00;95659.88;10375671;28;1478;-69
2024/04/05 19:25:49;;;;;;;;;;;;;;;17.68;100.00;95667.22;10400079;28;1580;-69
2024/04/05 19:30:52;;;;;;;;;;;;;;;17.58;100.00;95664.84;10384914;28;2348;-72
2024/04/05 19:35:56;;;;;;;;;;;;;;;17.56;100.00;95670.63;10377903;28;2012;-69
2024/04/05 19:40:57;;;;;;;;;;;;;;;17.48;100.00;95661.31;10381346;28;2365;-70
2024/04/05 19:45:59;;;;;;;;;;;;;;;17.47;100.00;95661.66;10374718;28;1571;-71
2024/04/05 19:51:04;;;;;;;;;;;;;;;17.36;100.00;95665.78;10375555;28;2876;-71
2024/04/05 19:56:05;;;;;;;;;;;;;;;17.35;100.00;95669.63;10391917;28;2320;-70
2024/04/05 20:01:07;;;;;;;;;;;;;;;17.38;100.00;95669.00;10369227;28;2806;-73
2024/04/05 20:06:09;;;;;;;;;;;;;;;17.29;100.00;95650.75;10372740;28;2802;-69
2024/04/05 20:11:11;;;;;;;;;;;;;;;17.26;100.00;95654.13;10359658;28;2896;-72
2024/04/05 20:16:12;;;;;;;;;;;;;;;17.24;100.00;95656.38;10400665;28;2844;-70
2024/04/05 20:21:14;;;;;;;;;;;;;;;17.21;100.00;95664.34;10430525;28;2838;-70
2024/04/05 20:26:17;;;;;;;;;;;;;;;17.16;100.00;95676.16;10419520;28;2723;-70
2024/04/05 20:36:40;;;;;;;;;;;;;;;17.02;100.00;95689.88;10404256;28;2883;-69
2024/04/05 20:41:42;;;;;;;;;;;;;;;17.02;100.00;95689.88;10425968;28;2887;-70
2024/04/05 20:46:44;;;;;;;;;;;;;;;16.99;100.00;95687.00;10417741;28;2875;-71
2024/04/05 20:51:45;;;;;;;;;;;;;;;16.93;100.00;95701.84;10414053;28;2787;-71
2024/04/05 20:56:47;;;;;;;;;;;;;;;16.97;100.00;95702.81;10415347;28;2610;-71
2024/04/05 21:01:49;;;;;;;;;;;;;;;16.96;100.00;95695.78;10427183;28;2812;-73
2024/04/05 21:06:51;;;;;;;;;;;;;;;16.92;100.00;95701.06;10397089;28;2824;-71
2024/04/05 21:11:53;;;;;;;;;;;;;;;16.93;100.00;95707.28;10397456;28;2764;-70
2024/04/05 21:16:55;;;;;;;;;;;;;;;16.91;100.00;95701.34;10377856;28;2847;-70
2024/04/05 21:21:58;;;;;;;;;;;;;;;16.88;100.00;95699.28;10385073;28;2938;-72
2024/04/05 21:27:00;;;;;;;;;;;;;;;16.86;100.00;95702.31;10359843;28;2890;-69
2024/04/05 21:32:02;;;;;;;;;;;;;;;16.89;100.00;95714.44;10374857;28;2352;-70
2024/04/05 21:37:03;;;;;;;;;;;;;;;16.91;100.00;95714.94;10370628;28;2545;-71
2024/04/05 21:42:05;;;;;;;;;;;;;;;16.87;100.00;95725.63;10372352;28;2809;-72
2024/04/05 21:47:06;;;;;;;;;;;;;;;16.92;100.00;95721.94;10373665;28;2823;-70
2024/04/05 21:52:09;;;;;;;;;;;;;;;16.86;100.00;95734.91;10370909;28;2905;-71
2024/04/05 21:57:11;;;;;;;;;;;;;;;16.83;100.00;95719.22;10354664;28;2806;-71
2024/04/05 22:02:14;;;;;;;;;;;;;;;16.83;100.00;95727.38;10374300;28;2759;-69
2024/04/05 22:07:16;;;;;;;;;;;;;;;16.77;100.00;95735.97;10372379;28;2521;-69
2024/04/05 22:12:17;;;;;;;;;;;;;;;16.77;100.00;95741.38;10366489;28;2852;-70
2024/04/05 22:17:19;;;;;;;;;;;;;;;16.71;100.00;95746.94;10374330;28;2520;-70
2024/04/05 22:22:21;;;;;;;;;;;;;;;16.74;100.00;95716.50;10386833;28;2845;-71
2024/04/05 22:27:24;;;;;;;;;;;;;;;16.58;100.00;95719.88;10373323;28;2630;-70
2024/04/05 22:32:26;;;;;;;;;;;;;;;16.56;100.00;95739.19;10367234;28;2771;-70
2024/04/05 22:37:28;;;;;;;;;;;;;;;16.42;100.00;95730.38;10373774;28;2870;-70
2024/04/05 22:42:29;;;;;;;;;;;;;;;16.41;100.00;95734.16;10368262;28;2870;-71
2024/04/05 22:47:31;;;;;;;;;;;;;;;16.37;100.00;95749.47;10368454;28;2798;-70
2024/04/05 22:52:33;;;;;;;;;;;;;;;16.34;100.00;95744.66;10364763;28;2899;-70
2024/04/05 22:57:34;;;;;;;;;;;;;;;16.33;100.00;95743.06;10370308;28;2803;-69
2024/04/05 23:02:36;;;;;;;;;;;;;;;16.24;100.00;95734.09;10371775;28;2894;-71
2024/04/05 23:07:38;;;;;;;;;;;;;;;16.18;100.00;95730.69;10368131;28;2771;-68
2024/04/05 23:12:40;;;;;;;;;;;;;;;16.17;100.00;95719.06;10367729;28;2641;-71
2024/04/05 23:17:41;;;;;;;;;;;;;;;16.15;100.00;95726.69;10408381;28;2547;-69
2024/04/05 23:22:44;;;;;;;;;;;;;;;16.21;100.00;95738.19;10418602;28;2899;-70
2024/04/05 23:27:45;;;;;;;;;;;;;;;16.26;100.00;95737.28;10422228;28;2792;-70
2024/04/05 23:32:47;;;;;;;;;;;;;;;16.25;100.00;95732.97;10421201;28;2792;-70
2024/04/05 23:37:49;;;;;;;;;;;;;;;16.23;100.00;95737.91;10400803;28;2811;-70
2024/04/05 23:42:51;;;;;;;;;;;;;;;16.27;100.00;95733.44;10415398;28;2611;-69
2024/04/05 23:47:52;;;;;;;;;;;;;;;16.25;100.00;95731.06;10420462;28;2912;-68
2024/04/05 23:52:54;;;;;;;;;;;;;;;16.24;100.00;95732.16;10415348;28;2810;-70
2024/04/05 23:57:58;;;;;;;;;;;;;;;16.14;100.00;95730.50;10411742;28;2722;-70
